createdAt,value
2018-12-21T00:00:35.272Z,99445.28
2018-12-21T00:03:03.429Z,99445.75
2018-12-21T00:05:31.575Z,99447.91
2018-12-21T00:08:28.756Z,99442.16
2018-12-21T00:10:56.875Z,99446.11
2018-12-21T00:13:25.019Z,99453.64
2018-12-21T00:15:53.097Z,99440.67
2018-12-21T00:18:21.299Z,99441.50
2018-12-21T00:20:49.402Z,99440.70
2018-12-21T00:23:17.559Z,99435.29
2018-12-21T00:25:58.314Z,99431.20
2018-12-21T00:28:38.811Z,99430.04
2018-12-21T00:31:12.421Z,99431.66
2018-12-21T00:33:46.198Z,99434.45
2018-12-21T00:36:19.886Z,99427.09
2018-12-21T00:38:53.585Z,99429.55
2018-12-21T00:41:51.092Z,99429.20
2018-12-21T00:44:28.896Z,99422.80
2018-12-21T00:47:00.866Z,99422.45
2018-12-21T00:49:29.141Z,99424.80
2018-12-21T00:51:57.268Z,99421.17
2018-12-21T00:54:25.496Z,99421.50
2018-12-21T00:56:53.730Z,99379.31
2018-12-21T00:59:21.858Z,99404.15
2018-12-21T01:01:49.948Z,99407.25
2018-12-21T01:04:18.138Z,99415.11
2018-12-21T01:06:46.395Z,99412.64
2018-12-21T01:09:14.717Z,99414.81
2018-12-21T01:11:43.202Z,99406.09
2018-12-21T01:14:11.347Z,99410.36
2018-12-21T01:16:39.463Z,99405.13
2018-12-21T01:19:07.692Z,99404.95
2018-12-21T01:21:38.966Z,99408.40
2018-12-21T01:24:05.932Z,99406.44
2018-12-21T01:26:34.108Z,99404.13
2018-12-21T01:29:02.380Z,99405.44
2018-12-21T01:31:40.106Z,99404.93
2018-12-21T01:34:08.959Z,99403.16
2018-12-21T01:36:37.035Z,99399.72
2018-12-21T01:39:06.728Z,99395.78
2018-12-21T01:42:04.536Z,99406.45
2018-12-21T01:44:32.576Z,99411.05
2018-12-21T01:47:00.640Z,99408.89
2018-12-21T01:49:28.773Z,99404.78
2018-12-21T01:51:57.197Z,99403.98
2018-12-21T01:54:25.315Z,99398.22
2018-12-21T01:56:53.548Z,99395.45
2018-12-21T01:59:21.550Z,99390.06
2018-12-21T02:01:49.636Z,99381.53
2018-12-21T02:04:17.710Z,99383.16
2018-12-21T02:06:45.731Z,99386.11
2018-12-21T02:09:13.810Z,99379.40
2018-12-21T02:11:42.092Z,99372.69
2018-12-21T02:17:09.967Z,99359.44
2018-12-21T02:19:47.459Z,99363.20
2018-12-21T02:22:15.547Z,99367.14
2018-12-21T02:24:43.680Z,99360.72
2018-12-21T02:27:11.842Z,99365.64
2018-12-21T02:30:09.114Z,99365.80
2018-12-21T02:32:37.743Z,99375.14
2018-12-21T02:35:06.406Z,99371.38
2018-12-21T02:37:34.512Z,99362.21
2018-12-21T02:40:02.763Z,99362.05
2018-12-21T02:42:30.911Z,99361.23
2018-12-21T02:44:59.021Z,99356.96
2018-12-21T02:47:27.083Z,99349.10
2018-12-21T02:50:00.297Z,99350.25
2018-12-21T02:52:28.375Z,99343.05
2018-12-21T02:54:56.563Z,99341.23
2018-12-21T02:57:24.689Z,99336.98
2018-12-21T02:59:52.828Z,99330.77
2018-12-21T03:02:20.975Z,99321.74
2018-12-21T03:04:49.129Z,99315.99
2018-12-21T03:07:17.248Z,99315.02
2018-12-21T03:09:45.560Z,99314.03
2018-12-21T03:12:13.672Z,99305.84
2018-12-21T03:14:41.785Z,99304.69
2018-12-21T03:17:09.923Z,99293.22
2018-12-21T03:19:58.508Z,99294.23
2018-12-21T03:22:26.650Z,99296.33
2018-12-21T03:24:54.755Z,99291.77
2018-12-21T03:27:23.149Z,99284.05
2018-12-21T03:29:51.218Z,99280.11
2018-12-21T03:32:19.411Z,99278.98
2018-12-21T03:34:47.521Z,99272.42
2018-12-21T03:37:15.963Z,99266.18
2018-12-21T03:39:44.032Z,99259.63
2018-12-21T03:42:12.061Z,99260.63
2018-12-21T03:44:40.173Z,99250.62
2018-12-21T03:47:08.305Z,99248.97
2018-12-21T03:49:36.401Z,99243.41
2018-12-21T03:52:04.477Z,99242.58
2018-12-21T03:54:32.586Z,99240.47
2018-12-21T03:57:00.772Z,99238.66
2018-12-21T03:59:28.831Z,99238.17
2018-12-21T04:01:56.924Z,99244.58
2018-12-21T04:04:24.958Z,99244.56
2018-12-21T04:06:53.146Z,99242.44
2018-12-21T04:09:21.371Z,99236.88
2018-12-21T04:11:49.459Z,99230.64
2018-12-21T04:14:17.461Z,99229.66
2018-12-21T04:16:45.553Z,99224.58
2018-12-21T04:19:26.729Z,99222.61
2018-12-21T04:21:54.954Z,99208.02
2018-12-21T04:24:23.156Z,99204.43
2018-12-21T04:26:51.269Z,99197.71
2018-12-21T04:29:25.265Z,99192.30
2018-12-21T04:31:53.328Z,99196.71
2018-12-21T04:34:28.439Z,99191.80
2018-12-21T04:37:19.152Z,99195.56
2018-12-21T04:39:52.271Z,99193.77
2018-12-21T04:42:23.950Z,99189.02
2018-12-21T04:44:52.079Z,99180.48
2018-12-21T04:47:20.141Z,99179.84
2018-12-21T04:49:48.444Z,99186.05
2018-12-21T04:52:16.567Z,99185.24
2018-12-21T04:54:44.642Z,99178.53
2018-12-21T04:57:12.777Z,99183.45
2018-12-21T04:59:41.118Z,99185.41
2018-12-21T05:02:09.410Z,99179.84
2018-12-21T05:04:37.614Z,99189.50
2018-12-21T05:10:32.892Z,99189.83
2018-12-21T05:13:00.963Z,99182.95
2018-12-21T05:15:29.140Z,99180.65
2018-12-21T05:17:57.824Z,99176.56
2018-12-21T05:20:31.154Z,99173.13
2018-12-21T05:22:59.243Z,99174.27
2018-12-21T05:25:27.408Z,99166.24
2018-12-21T05:27:59.044Z,99171.16
2018-12-21T05:30:27.218Z,99170.83
2018-12-21T05:33:01.846Z,99173.46
2018-12-21T05:35:29.942Z,99170.50
2018-12-21T05:37:58.139Z,99157.88
2018-12-21T05:40:35.694Z,99151.97
2018-12-21T05:43:09.881Z,99148.88
2018-12-21T05:45:38.016Z,99138.22
2018-12-21T05:48:09.213Z,99130.52
2018-12-21T05:50:40.976Z,99130.68
2018-12-21T05:53:12.912Z,99129.21
2018-12-21T05:55:44.872Z,99131.66
2018-12-21T05:58:18.646Z,99124.61
2018-12-21T06:00:52.476Z,99113.63
2018-12-21T06:03:24.015Z,99106.94
2018-12-21T06:05:58.208Z,99109.05
2018-12-21T06:08:32.173Z,99096.77
2018-12-21T06:11:09.993Z,99098.91
2018-12-21T06:13:44.911Z,99089.09
2018-12-21T06:16:17.135Z,99087.44
2018-12-21T06:18:51.571Z,99080.23
2018-12-21T06:21:25.266Z,99083.33
2018-12-21T06:23:54.915Z,99068.25
2018-12-21T06:26:26.065Z,99069.09
2018-12-21T06:28:58.063Z,99055.81
2018-12-21T06:31:29.948Z,99063.01
2018-12-21T06:34:01.396Z,99058.42
2018-12-21T06:36:37.692Z,99054.66
2018-12-21T06:39:07.413Z,99051.89
2018-12-21T06:41:41.730Z,98958.65
2018-12-21T06:44:12.827Z,99034.70
2018-12-21T06:46:47.112Z,99032.09
2018-12-21T06:49:18.426Z,99028.98
2018-12-21T06:51:52.723Z,99041.95
2018-12-21T06:54:26.691Z,99045.22
2018-12-21T06:56:58.536Z,99038.49
2018-12-21T06:59:32.443Z,99030.84
2018-12-21T07:02:04.119Z,99020.34
2018-12-21T07:04:38.607Z,99016.77
2018-12-21T07:07:12.905Z,99010.50
2018-12-21T07:09:46.756Z,99012.64
2018-12-21T07:12:18.405Z,98999.20
2018-12-21T07:14:50.462Z,98997.42
2018-12-21T07:17:19.678Z,98989.56
2018-12-21T07:19:54.050Z,98981.38
2018-12-21T07:22:33.515Z,98973.52
2018-12-21T07:25:13.217Z,98963.70
2018-12-21T07:27:47.286Z,98887.81
2018-12-21T07:30:25.024Z,98950.13
2018-12-21T07:33:03.905Z,98948.68
2018-12-21T07:35:40.459Z,98943.59
2018-12-21T07:38:16.168Z,98928.05
2018-12-21T07:40:47.482Z,98912.37
2018-12-21T07:43:16.654Z,98895.17
2018-12-21T07:45:48.357Z,98889.61
2018-12-21T07:48:20.015Z,98880.80
2018-12-21T07:50:55.593Z,98892.08
2018-12-21T07:53:35.683Z,98884.90
2018-12-21T07:56:03.815Z,98880.81
2018-12-21T07:58:37.963Z,98874.58
2018-12-21T08:01:09.610Z,98870.65
2018-12-21T08:03:41.331Z,98829.63
2018-12-21T08:06:16.054Z,98862.48
2018-12-21T08:08:52.474Z,98859.39
2018-12-21T08:11:26.810Z,98849.89
2018-12-21T08:14:01.439Z,98852.02
2018-12-21T08:16:33.340Z,98850.70
2018-12-21T08:19:07.059Z,98848.41
2018-12-21T08:21:42.013Z,98846.94
2018-12-21T08:24:14.589Z,98847.75
2018-12-21T08:26:47.332Z,98844.30
2018-12-21T08:29:21.677Z,98842.34
2018-12-21T08:31:51.784Z,98836.28
2018-12-21T08:34:25.760Z,98829.91
2018-12-21T08:37:00.688Z,98829.72
2018-12-21T08:39:32.538Z,98823.67
2018-12-21T08:42:04.646Z,98818.26
2018-12-21T08:44:37.118Z,98814.98
2018-12-21T08:47:17.872Z,98817.26
2018-12-21T08:49:49.755Z,98808.06
2018-12-21T08:52:24.197Z,98803.64
2018-12-21T08:54:55.634Z,98808.84
2018-12-21T08:57:26.871Z,98808.48
2018-12-21T09:00:01.337Z,98808.17
2018-12-21T09:02:35.266Z,98799.15
2018-12-21T09:05:09.190Z,98795.01
2018-12-21T09:07:40.881Z,98793.19
2018-12-21T09:10:10.203Z,98796.45
2018-12-21T09:12:41.387Z,98793.34
2018-12-21T09:15:17.983Z,98789.21
2018-12-21T09:17:52.468Z,98785.10
2018-12-21T09:20:27.175Z,98790.69
2018-12-21T09:23:01.437Z,98777.61
2018-12-21T09:25:35.257Z,98771.87
2018-12-21T09:28:09.130Z,98766.14
2018-12-21T09:30:43.010Z,98768.25
2018-12-21T09:33:17.036Z,98758.77
2018-12-21T09:35:49.032Z,98748.77
2018-12-21T09:38:20.363Z,98739.76
2018-12-21T09:40:51.717Z,98739.42
2018-12-21T09:43:23.559Z,98732.98
2018-12-21T09:45:54.694Z,98719.00
2018-12-21T09:48:26.716Z,98711.29
2018-12-21T09:51:01.276Z,98706.83
2018-12-21T09:53:34.975Z,98702.41
2018-12-21T09:56:08.644Z,98703.73
2018-12-21T09:58:38.460Z,98694.38
2018-12-21T10:01:09.953Z,98683.44
2018-12-21T10:03:41.921Z,98684.42
2018-12-21T10:06:13.736Z,98669.98
2018-12-21T10:08:56.117Z,98664.64
2018-12-21T10:11:27.848Z,98660.20
2018-12-21T10:14:01.979Z,98653.81
2018-12-21T10:16:35.589Z,98635.89
2018-12-21T10:19:07.810Z,98625.11
2018-12-21T10:21:42.050Z,98619.23
2018-12-21T10:24:18.262Z,98575.70
2018-12-21T10:26:46.173Z,98599.36
2018-12-21T10:29:18.307Z,98598.05
2018-12-21T10:31:50.424Z,98583.28
2018-12-21T10:34:24.078Z,98574.27
2018-12-21T10:36:58.175Z,98563.33
2018-12-21T10:39:29.782Z,98550.66
2018-12-21T10:42:01.659Z,98532.42
2018-12-21T10:44:32.835Z,98533.02
2018-12-21T10:47:07.191Z,98527.88
2018-12-21T10:49:39.037Z,98524.14
2018-12-21T10:52:12.145Z,98520.13
2018-12-21T10:54:54.083Z,98523.37
2018-12-21T10:57:32.153Z,98524.12
2018-12-21T11:00:10.921Z,98520.59
2018-12-21T11:02:48.628Z,98510.11
2018-12-21T11:05:21.096Z,98503.47
2018-12-21T11:07:50.855Z,98496.57
2018-12-21T11:10:22.808Z,98487.38
2018-12-21T11:12:57.218Z,98475.03
2018-12-21T11:15:30.529Z,98476.15
2018-12-21T11:18:07.594Z,98470.69
2018-12-21T11:20:40.875Z,98467.89
2018-12-21T11:23:16.874Z,98476.09
2018-12-21T11:25:51.155Z,98458.37
2018-12-21T11:28:27.135Z,98460.25
2018-12-21T11:31:01.591Z,98456.58
2018-12-21T11:33:46.445Z,98448.20
2018-12-21T11:36:21.053Z,98431.66
2018-12-21T11:38:55.951Z,98426.52
2018-12-21T11:41:31.355Z,98422.23
2018-12-21T11:44:02.848Z,98414.70
2018-12-21T11:46:36.027Z,98400.74
2018-12-21T11:49:26.621Z,98398.45
2018-12-21T11:51:58.354Z,98381.02
2018-12-21T11:54:30.188Z,98384.33
2018-12-21T11:57:01.992Z,98379.64
2018-12-21T11:59:44.707Z,98371.86
2018-12-21T12:02:19.325Z,98377.40
2018-12-21T12:04:46.791Z,98373.11
2018-12-21T12:07:14.917Z,98367.54
2018-12-21T12:10:01.625Z,98364.83
2018-12-21T12:12:46.019Z,98360.94
2018-12-21T12:15:15.972Z,98357.01
2018-12-21T12:17:50.513Z,98358.20
2018-12-21T12:22:54.257Z,98349.04
2018-12-21T12:25:23.457Z,98344.55
2018-12-21T12:27:57.916Z,98340.11
2018-12-21T12:30:29.980Z,98339.45
2018-12-21T12:33:05.147Z,98332.91
2018-12-21T12:35:36.827Z,98328.20
2018-12-21T12:38:08.789Z,98337.03
2018-12-21T12:40:38.811Z,98331.42
2018-12-21T12:43:19.551Z,98330.92
2018-12-21T12:45:49.297Z,98319.41
2018-12-21T12:48:20.989Z,98329.78
2018-12-21T12:51:01.781Z,98326.09
2018-12-21T12:53:33.518Z,98326.20
2018-12-21T12:56:05.200Z,98327.83
2018-12-21T12:58:33.711Z,98320.31
2018-12-21T13:01:01.834Z,98312.59
2018-12-21T13:03:29.919Z,98318.45
2018-12-21T13:05:57.975Z,98308.37
2018-12-21T13:08:26.100Z,98310.67
2018-12-21T13:10:54.196Z,98300.14
2018-12-21T13:13:22.308Z,98300.02
2018-12-21T13:15:50.452Z,98293.25
2018-12-21T13:18:21.810Z,98291.80
2018-12-21T13:20:55.739Z,98295.33
2018-12-21T13:23:35.589Z,98295.00
2018-12-21T13:26:07.648Z,98279.78
2018-12-21T13:28:35.794Z,98292.45
2018-12-21T13:31:09.428Z,98297.62
2018-12-21T13:33:40.598Z,98303.44
2018-12-21T13:36:08.706Z,98297.27
2018-12-21T13:38:40.623Z,98312.75
2018-12-21T13:41:12.800Z,98302.84
2018-12-21T13:43:47.317Z,98303.03
2018-12-21T13:46:21.036Z,98300.16
2018-12-21T13:48:52.722Z,98307.65
2018-12-21T13:51:20.875Z,98295.05
2018-12-21T13:53:56.114Z,98294.82
2018-12-21T13:56:25.993Z,98303.22
2018-12-21T13:58:57.637Z,98306.55
2018-12-21T14:01:29.828Z,98302.64
2018-12-21T14:04:03.499Z,98300.55
2018-12-21T14:06:31.752Z,98300.11
2018-12-21T14:09:06.959Z,98299.05
2018-12-21T14:11:41.449Z,98297.98
2018-12-21T14:14:13.037Z,98297.49
2018-12-21T14:16:47.550Z,98296.88
2018-12-21T14:19:19.069Z,98303.27
2018-12-21T14:21:50.182Z,98308.17
2018-12-21T14:24:22.618Z,98295.48
2018-12-21T14:26:55.359Z,98300.42
2018-12-21T14:29:27.017Z,98307.33
2018-12-21T14:32:00.935Z,98308.35
2018-12-21T14:34:35.963Z,98303.65
2018-12-21T14:37:09.996Z,98307.03
2018-12-21T14:39:41.772Z,98306.85
2018-12-21T14:42:13.887Z,98308.99
2018-12-21T14:44:46.009Z,98310.80
2018-12-21T14:47:17.188Z,98310.38
2018-12-21T14:49:51.729Z,98309.02
2018-12-21T14:52:26.007Z,98301.12
2018-12-21T14:54:59.740Z,98310.09
2018-12-21T14:57:31.545Z,98312.09
2018-12-21T15:00:11.096Z,98309.59
2018-12-21T15:02:43.116Z,98313.05
2018-12-21T15:05:17.972Z,98315.63
2018-12-21T15:07:49.612Z,98322.98
2018-12-21T15:10:23.897Z,98325.45
2018-12-21T15:12:55.405Z,98328.84
2018-12-21T15:15:29.167Z,98328.72
2018-12-21T15:18:05.605Z,98341.48
2018-12-21T15:20:37.679Z,98343.07
2018-12-21T15:23:09.459Z,98336.58
2018-12-21T15:25:46.082Z,98338.16
2018-12-21T15:28:17.234Z,98343.86
2018-12-21T15:30:48.643Z,98334.87
2018-12-21T15:33:22.359Z,98338.02
2018-12-21T15:35:51.961Z,98345.33
2018-12-21T15:38:23.833Z,98336.70
2018-12-21T15:40:55.591Z,98330.41
2018-12-21T15:43:27.613Z,98329.84
2018-12-21T15:46:01.376Z,98347.80
2018-12-21T15:48:32.961Z,98348.75
2018-12-21T15:51:03.178Z,98341.36
2018-12-21T15:53:35.167Z,98354.47
2018-12-21T15:56:08.828Z,98355.56
2018-12-21T15:58:40.554Z,98370.09
2018-12-21T16:01:15.042Z,98360.25
2018-12-21T16:03:47.109Z,98372.16
2018-12-21T16:06:18.491Z,98366.05
2018-12-21T16:08:50.630Z,98352.15
2018-12-21T16:11:24.991Z,98363.83
2018-12-21T16:13:56.834Z,98359.16
2018-12-21T16:16:31.212Z,98363.53
2018-12-21T16:19:05.855Z,98374.00
2018-12-21T16:21:37.839Z,98369.22
2018-12-21T16:24:12.348Z,98360.52
2018-12-21T16:26:46.131Z,98354.41
2018-12-21T16:29:17.609Z,98349.64
2018-12-21T16:31:48.888Z,98346.60
2018-12-21T16:34:18.936Z,98350.47
2018-12-21T16:36:50.506Z,98350.66
2018-12-21T16:39:22.536Z,98368.32
2018-12-21T16:41:52.279Z,98342.89
2018-12-21T16:44:26.533Z,98354.76
2018-12-21T16:47:00.464Z,98353.27
2018-12-21T16:49:32.135Z,98359.30
2018-12-21T16:52:03.344Z,98361.23
2018-12-21T16:54:35.355Z,98374.15
2018-12-21T16:57:07.442Z,98352.00
2018-12-21T16:59:43.296Z,98372.80
2018-12-21T17:02:16.120Z,98365.29
2018-12-21T17:04:47.341Z,98376.02
2018-12-21T17:07:18.775Z,98370.91
2018-12-21T17:09:49.077Z,98376.44
2018-12-21T17:12:20.984Z,98370.53
2018-12-21T17:14:55.385Z,98378.05
2018-12-21T17:17:26.912Z,98390.03
2018-12-21T17:20:04.555Z,98381.66
2018-12-21T17:22:35.824Z,98397.67
2018-12-21T17:25:11.967Z,98397.51
2018-12-21T17:27:43.636Z,98397.62
2018-12-21T17:30:15.161Z,98395.57
2018-12-21T17:32:47.987Z,98385.70
2018-12-21T17:35:17.159Z,98397.39
2018-12-21T17:37:51.668Z,98399.41
2018-12-21T17:40:24.006Z,98389.72
2018-12-21T17:42:57.922Z,98399.91
2018-12-21T17:45:29.493Z,98398.25
2018-12-21T17:48:04.944Z,98401.02
2018-12-21T17:50:38.952Z,98392.94
2018-12-21T17:53:10.760Z,98414.19
2018-12-21T17:55:41.456Z,98411.47
2018-12-21T17:58:13.005Z,98415.02
2018-12-21T18:00:45.125Z,98416.67
2018-12-21T18:03:26.255Z,98429.61
2018-12-21T18:05:58.695Z,98423.37
2018-12-21T18:08:32.506Z,98429.14
2018-12-21T18:11:04.306Z,98426.46
2018-12-21T18:13:36.436Z,98445.54
2018-12-21T18:16:10.957Z,98437.58
2018-12-21T18:18:45.480Z,98432.86
2018-12-21T18:21:17.479Z,98438.34
2018-12-21T18:23:49.026Z,98436.83
2018-12-21T18:26:21.714Z,98445.66
2018-12-21T18:28:55.389Z,98441.20
2018-12-21T18:31:36.699Z,98445.50
2018-12-21T18:34:10.840Z,98254.09
2018-12-21T18:36:42.793Z,98436.24
2018-12-21T18:39:14.732Z,98453.30
2018-12-21T18:41:49.795Z,98449.88
2018-12-21T18:44:24.054Z,98442.68
2018-12-21T18:46:55.756Z,98459.06
2018-12-21T18:49:27.913Z,98457.36
2018-12-21T18:51:59.915Z,98449.15
2018-12-21T18:54:32.056Z,98455.42
2018-12-21T18:57:10.761Z,98470.05
2018-12-21T18:59:42.317Z,98465.91
2018-12-21T19:02:13.526Z,98461.53
2018-12-21T19:04:45.386Z,98452.03
2018-12-21T19:07:16.710Z,98464.09
2018-12-21T19:09:46.015Z,98449.81
2018-12-21T19:12:19.638Z,98465.98
2018-12-21T19:14:50.925Z,98440.58
2018-12-21T19:17:23.087Z,98460.39
2018-12-21T19:19:56.709Z,98460.02
2018-12-21T19:22:28.552Z,98445.98
2018-12-21T19:25:00.418Z,98441.52
2018-12-21T19:27:32.432Z,98454.72
2018-12-21T19:30:09.087Z,98461.68
2018-12-21T19:32:43.637Z,98466.09
2018-12-21T19:35:15.495Z,98475.98
2018-12-21T19:40:46.287Z,98475.94
2018-12-21T19:43:27.944Z,98475.03
2018-12-21T19:45:56.044Z,98468.75
2018-12-21T19:48:28.632Z,98500.34
2018-12-21T19:51:01.384Z,98494.11
2018-12-21T19:53:35.079Z,98480.45
2018-12-21T19:56:24.360Z,98489.69
2018-12-21T19:58:56.340Z,98496.80
2018-12-21T20:01:30.051Z,98495.00
2018-12-21T20:04:01.777Z,98493.21
2018-12-21T20:06:33.259Z,98504.00
2018-12-21T20:09:07.312Z,98503.64
2018-12-21T20:11:37.689Z,98485.31
2018-12-21T20:14:09.465Z,98488.05
2018-12-21T20:16:43.867Z,98498.98
2018-12-21T20:19:17.439Z,98510.39
2018-12-21T20:21:50.709Z,98497.70
2018-12-21T20:24:28.432Z,98516.80
2018-12-21T20:27:13.575Z,98518.34
2018-12-21T20:29:41.915Z,98507.66
2018-12-21T20:32:13.954Z,98506.87
2018-12-21T20:34:43.820Z,98512.98
2018-12-21T20:37:15.599Z,98525.16
2018-12-21T20:39:48.736Z,98497.25
2018-12-21T20:42:26.457Z,98505.43
2018-12-21T20:44:58.796Z,98482.92
2018-12-21T20:47:32.390Z,98329.36
2018-12-21T20:50:02.669Z,98512.02
2018-12-21T20:52:37.208Z,98510.46
2018-12-21T20:55:09.016Z,98520.66
2018-12-21T20:57:42.626Z,98517.86
2018-12-21T21:00:15.954Z,98514.59
2018-12-21T21:02:47.573Z,98516.70
2018-12-21T21:05:22.176Z,98518.42
2018-12-21T21:11:05.941Z,98527.51
2018-12-21T21:13:37.472Z,98532.37
2018-12-21T21:16:09.576Z,98533.41
2018-12-21T21:18:41.618Z,98537.03
2018-12-21T21:21:13.078Z,98534.97
2018-12-21T21:23:44.853Z,98530.15
2018-12-21T21:26:16.803Z,98542.67
2018-12-21T21:28:51.719Z,98542.92
2018-12-21T21:31:27.519Z,98547.95
2018-12-21T21:33:59.770Z,98548.24
2018-12-21T21:36:34.242Z,98548.30
2018-12-21T21:46:39.003Z,98560.08
2018-12-21T21:49:08.703Z,98509.92
2018-12-21T21:51:40.616Z,98574.59
2018-12-21T21:54:12.490Z,98552.61
2018-12-21T21:56:45.473Z,98571.64
2018-12-21T21:59:16.821Z,98566.58
2018-12-21T22:01:48.802Z,98579.98
2018-12-21T22:04:23.289Z,98570.66
2018-12-21T22:06:53.366Z,98575.83
2018-12-21T22:09:27.761Z,98561.83
2018-12-21T22:11:57.369Z,98570.95
2018-12-21T22:14:29.278Z,98569.34
2018-12-21T22:17:01.383Z,98579.70
2018-12-21T22:19:35.928Z,98579.78
2018-12-21T22:22:10.567Z,98595.08
2018-12-21T22:24:42.542Z,98585.88
2018-12-21T22:27:21.397Z,98590.47
2018-12-21T22:29:52.960Z,98587.41
2018-12-21T22:32:27.360Z,98591.63
2018-12-21T22:35:01.289Z,98579.78
2018-12-21T22:37:32.732Z,98589.21
2018-12-21T22:40:06.923Z,98581.74
2018-12-21T22:42:38.821Z,98590.99
2018-12-21T22:45:10.947Z,98596.79
2018-12-21T22:47:42.930Z,98582.75
2018-12-21T22:50:17.408Z,98597.81
2018-12-21T22:52:52.475Z,98595.08
2018-12-21T22:55:22.238Z,98592.73
2018-12-21T22:58:00.742Z,98570.88
2018-12-21T23:00:37.969Z,98598.77
2018-12-21T23:03:09.269Z,98591.74
2018-12-21T23:05:39.342Z,98429.79
2018-12-21T23:08:11.452Z,98609.57
2018-12-21T23:10:42.642Z,98599.55
2018-12-21T23:13:13.806Z,98605.01
2018-12-21T23:15:45.580Z,98601.14
2018-12-21T23:18:17.269Z,98595.77
2018-12-21T23:20:50.880Z,98605.67
2018-12-21T23:23:24.763Z,98608.34
2018-12-21T23:25:59.188Z,98604.42
2018-12-21T23:28:32.855Z,98603.69
2018-12-21T23:31:04.728Z,98601.88
2018-12-21T23:33:38.474Z,98620.09
2018-12-21T23:36:10.086Z,98605.44
2018-12-21T23:38:40.176Z,98619.97
2018-12-21T23:41:12.334Z,98618.52
2018-12-21T23:43:46.083Z,98622.91
2018-12-21T23:46:18.888Z,98625.81
2018-12-21T23:48:51.172Z,98624.30
2018-12-21T23:51:22.648Z,98631.39
2018-12-21T23:53:54.210Z,98627.87
2018-12-21T23:56:26.061Z,98624.30
2018-12-21T23:58:57.853Z,98633.02
